»·PEaware :: N462HA MMLM-KTRM

N462HA :: MMLM-KTRM

FLIGHT INFORMATION

Flight Status: Arrived
Operator: Privately registered:
United States
More flights under this callsign
Pilot: Alan J. (5709)
Aircraft: ANTONOV AN-24
(AN24)
More flights by this aircraft type
Origin: MMLM Valle Del Fuerte Internationa
Mexico
Destination: KTRM Desert Resorts Regl
United States
More flights between these airports :: More routes between these airports
Route: +LMM UJ3 CEN UJ7 PPE J93 IPL TRM
File this flight plan on PilotEdge
Remarks:
Altitude:
(Current/Filed)
24,000ft
Speed:
(Current/Filed)
270kts
Departed: 18-Oct-17 03:47 PM
Arrived: 18-Oct-17 05:12 PM
Distance/Time
Traveled:
603nm/1:25
Distance/Time
To Go:
Arrived

Flight Plot

Page will automatically refresh every two minutes.

Flight plan parsing failed; only flown route is shown


Map Options




Map Legend


Flown Route
Filed Route
Departure Airport
Arrival Airport
Navaid (VOR, NDB)
Fix

Horizontal Profiles

Position Reports

Time Latitude Longitude Heading Altitude Ground
Speed
18-Oct-17 15:51 25.971074 -109.348923 322 12226ft 192kts
18-Oct-17 15:52 26.013526 -109.384108 321 13466ft 190kts
18-Oct-17 15:53 26.055624 -109.418847 321 14624ft 188kts
18-Oct-17 15:54 26.097395 -109.453179 324 15699ft 186kts
18-Oct-17 15:55 26.139547 -109.487114 325 16566ft 191kts
18-Oct-17 15:56 26.182676 -109.521537 324 17441ft 191kts
18-Oct-17 15:57 26.225732 -109.555761 321 18281ft 190kts
18-Oct-17 15:58 26.268418 -109.589587 321 19067ft 188kts
18-Oct-17 15:59 26.310958 -109.623279 326 19806ft 187kts
18-Oct-17 16:00 26.353327 -109.656696 318 20478ft 187kts
18-Oct-17 16:01 26.395850 -109.691224 324 21052ft 190kts
18-Oct-17 16:02 26.438594 -109.725893 320 21636ft 190kts
18-Oct-17 16:03 26.481273 -109.760458 323 22192ft 190kts
18-Oct-17 16:04 26.523925 -109.794935 319 22714ft 189kts
18-Oct-17 16:05 26.566436 -109.829292 325 23204ft 188kts
18-Oct-17 16:06 26.608705 -109.863388 320 23663ft 188kts
18-Oct-17 16:07 26.651061 -109.899028 322 23865ft 200kts
18-Oct-17 16:08 26.697447 -109.938355 322 23844ft 218kts
18-Oct-17 16:09 26.747056 -109.980544 321 23839ft 229kts
18-Oct-17 16:10 26.800117 -110.022475 324 23841ft 236kts
18-Oct-17 16:11 26.854926 -110.064468 324 23841ft 241kts
18-Oct-17 16:12 26.910469 -110.106956 324 23838ft 243kts
18-Oct-17 16:13 26.967000 -110.148731 324 23841ft 244kts
18-Oct-17 16:14 27.024656 -110.189137 324 23836ft 245kts
18-Oct-17 16:15 28.380176 -111.371068 325 23896ft 243kts
18-Oct-17 16:16 29.723203 -112.590192 324 23887ft 240kts
18-Oct-17 16:17 29.773248 -112.639580 321 23907ft 235kts
18-Oct-17 16:18 29.822408 -112.688305 321 23903ft 233kts
18-Oct-17 16:19 29.871150 -112.736771 321 23905ft 231kts
18-Oct-17 16:20 31.197550 -113.987709 312 23933ft 231kts
18-Oct-17 16:21 31.254642 -114.027284 323 23899ft 243kts
18-Oct-17 16:22 31.313025 -114.067233 314 23945ft 239kts
18-Oct-17 16:23 31.365097 -114.116701 313 23884ft 243kts
18-Oct-17 16:24 31.417330 -114.166889 313 23847ft 245kts
18-Oct-17 16:25 31.469697 -114.217296 313 23912ft 243kts
18-Oct-17 16:26 31.521936 -114.267669 313 23909ft 243kts
18-Oct-17 16:27 31.574978 -114.317794 318 23869ft 248kts
18-Oct-17 16:28 31.634624 -114.359269 322 23891ft 249kts
18-Oct-17 16:29 31.691953 -114.403062 313 23880ft 244kts
18-Oct-17 16:30 31.739926 -114.458283 305 23839ft 241kts
18-Oct-17 16:31 31.785182 -114.515712 310 23874ft 243kts
18-Oct-17 16:32 31.839255 -114.562968 328 23897ft 253kts
18-Oct-17 16:33 31.904889 -114.593603 331 23892ft 254kts
18-Oct-17 16:34 31.967818 -114.623972 324 23892ft 250kts
18-Oct-17 16:35 32.014969 -114.676814 289 23861ft 233kts
18-Oct-17 16:36 32.041322 -114.745988 301 23920ft 235kts
18-Oct-17 16:37 32.098431 -114.790024 325 23881ft 251kts
18-Oct-17 16:38 32.160308 -114.826666 323 23894ft 251kts
18-Oct-17 16:39 32.222861 -114.863474 323 23878ft 252kts
18-Oct-17 16:40 32.278227 -114.909749 306 23865ft 241kts
18-Oct-17 16:41 32.321449 -114.969458 305 23845ft 241kts
18-Oct-17 16:42 32.364579 -115.029322 301 23920ft 236kts
18-Oct-17 16:43 32.407690 -115.088239 305 23903ft 236kts
18-Oct-17 16:44 32.443203 -115.151908 293 23874ft 230kts
18-Oct-17 16:45 32.475842 -115.216430 294 23863ft 222kts
18-Oct-17 16:46 32.507833 -115.278925 296 22537ft 234kts
18-Oct-17 16:47 32.544263 -115.345880 308 20981ft 254kts
18-Oct-17 16:48 32.613781 -115.375794 339 19631ft 279kts
18-Oct-17 16:49 32.676169 -115.418822 308 18450ft 255kts
18-Oct-17 16:50 32.719043 -115.480536 304 17206ft 258kts
18-Oct-17 16:51 32.763641 -115.547522 312 15988ft 262kts
18-Oct-17 16:52 32.829088 -115.588446 330 14896ft 272kts
18-Oct-17 16:53 32.899325 -115.622860 333 13894ft 274kts
18-Oct-17 16:54 32.965785 -115.655405 332 13996ft 244kts
18-Oct-17 16:55 33.022546 -115.691515 320 13994ft 223kts
18-Oct-17 16:56 33.068401 -115.737461 311 13887ft 217kts
18-Oct-17 16:57 33.108691 -115.786251 314 12756ft 254kts
18-Oct-17 16:58 33.168565 -115.834821 334 11544ft 268kts
18-Oct-17 16:59 33.237614 -115.867198 335 10953ft 252kts
18-Oct-17 17:00 33.297231 -115.902162 324 11001ft 229kts
18-Oct-17 17:01 33.349229 -115.942370 347 11000ft 217kts
18-Oct-17 17:02 33.413645 -115.926874 15 9614ft 261kts
18-Oct-17 17:03 33.485037 -115.900091 15 8170ft 275kts
18-Oct-17 17:04 33.558385 -115.872426 16 6943ft 273kts
18-Oct-17 17:05 33.626744 -115.847522 5 6665ft 251kts
18-Oct-17 17:06 33.661489 -115.903597 249 5895ft 254kts
18-Oct-17 17:07 33.601815 -115.940319 198 5162ft 252kts
18-Oct-17 17:08 33.532678 -115.937756 176 4338ft 254kts
18-Oct-17 17:09 33.473032 -115.970634 232 3936ft 212kts
18-Oct-17 17:10 33.448142 -116.023321 259 3897ft 152kts
18-Oct-17 17:11 33.472426 -116.056599 339 2873ft 150kts
18-Oct-17 17:12 33.508781 -116.069694 344 2258ft 131kts
18-Oct-17 17:13 33.543338 -116.086403 333 2025ft 141kts
18-Oct-17 17:14 33.575883 -116.107457 324 1309ft 131kts
18-Oct-17 17:15 33.602269 -116.137246 314 402ft 130kts
18-Oct-17 17:16 33.626602 -116.166721 314 -104ft 88kts
18-Oct-17 17:17 33.630212 -116.170803 34 -99ft 7kts
18-Oct-17 17:18 33.632137 -116.170888 0 -98ft 0kts
18-Oct-17 17:19 33.634111 -116.170568 81 -97ft 2kts
18-Oct-17 17:20 33.634130 -116.166035 89 -101ft 26kts
18-Oct-17 17:21 33.634120 -116.164429 93 -101ft 3kts
18-Oct-17 17:22 33.634435 -116.163696 0 -101ft 0kts
18-Oct-17 17:23 33.634435 -116.163696 0 -101ft 0kts
18-Oct-17 17:24 33.634435 -116.163696 0 -101ft 0kts
18-Oct-17 17:25 33.634435 -116.163696 0 -101ft 0kts

Navigation Log

Ident Type
Flight plan parsing failed, navigation log unavailable